sensor_id;sensor_type;location;lat;lon;timestamp;P1;durP1;ratioP1;P2;durP2;ratioP2
17372;SDS011;8803;48.116;11.590;2023-05-15T00:01:27;3.33;;;3.10;;
17372;SDS011;8803;48.116;11.590;2023-05-15T00:03:41;3.70;;;3.40;;
17372;SDS011;8803;48.116;11.590;2023-05-15T00:05:45;3.27;;;2.97;;
17372;SDS011;8803;48.116;11.590;2023-05-15T00:07:49;3.83;;;3.43;;
17372;SDS011;8803;48.116;11.590;2023-05-15T00:09:53;3.73;;;3.43;;
17372;SDS011;8803;48.116;11.590;2023-05-15T00:12:06;3.53;;;3.20;;
17372;SDS011;8803;48.116;11.590;2023-05-15T00:14:11;3.33;;;3.07;;
17372;SDS011;8803;48.116;11.590;2023-05-15T00:16:14;3.37;;;3.07;;
17372;SDS011;8803;48.116;11.590;2023-05-15T00:18:18;3.60;;;3.30;;
17372;SDS011;8803;48.116;11.590;2023-05-15T00:20:22;3.30;;;3.00;;
17372;SDS011;8803;48.116;11.590;2023-05-15T00:22:34;2.90;;;2.70;;
17372;SDS011;8803;48.116;11.590;2023-05-15T00:24:38;4.23;;;3.83;;
17372;SDS011;8803;48.116;11.590;2023-05-15T00:26:42;3.80;;;3.50;;
17372;SDS011;8803;48.116;11.590;2023-05-15T00:28:46;3.50;;;3.20;;
17372;SDS011;8803;48.116;11.590;2023-05-15T00:30:49;3.63;;;3.33;;
17372;SDS011;8803;48.116;11.590;2023-05-15T00:33:02;3.60;;;3.30;;
17372;SDS011;8803;48.116;11.590;2023-05-15T00:35:06;3.00;;;2.80;;
17372;SDS011;8803;48.116;11.590;2023-05-15T00:37:10;3.17;;;2.87;;
17372;SDS011;8803;48.116;11.590;2023-05-15T00:39:14;3.33;;;3.03;;
17372;SDS011;8803;48.116;11.590;2023-05-15T00:41:28;3.10;;;2.80;;
17372;SDS011;8803;48.116;11.590;2023-05-15T00:43:33;3.47;;;3.10;;
17372;SDS011;8803;48.116;11.590;2023-05-15T00:45:38;3.20;;;3.00;;
17372;SDS011;8803;48.116;11.590;2023-05-15T00:47:43;3.63;;;3.30;;
17372;SDS011;8803;48.116;11.590;2023-05-15T00:49:58;3.73;;;3.33;;
17372;SDS011;8803;48.116;11.590;2023-05-15T00:52:03;3.43;;;3.13;;
17372;SDS011;8803;48.116;11.590;2023-05-15T00:54:08;3.30;;;2.97;;
17372;SDS011;8803;48.116;11.590;2023-05-15T00:56:21;3.53;;;3.23;;
17372;SDS011;8803;48.116;11.590;2023-05-15T00:58:26;5.17;;;3.60;;
17372;SDS011;8803;48.116;11.590;2023-05-15T01:00:32;3.80;;;3.50;;
17372;SDS011;8803;48.116;11.590;2023-05-15T01:02:46;3.23;;;2.97;;
17372;SDS011;8803;48.116;11.590;2023-05-15T01:04:51;4.03;;;3.30;;
17372;SDS011;8803;48.116;11.590;2023-05-15T01:06:55;3.87;;;3.07;;
17372;SDS011;8803;48.116;11.590;2023-05-15T01:08:59;3.90;;;3.60;;
17372;SDS011;8803;48.116;11.590;2023-05-15T01:15:23;3.60;;;3.30;;
17372;SDS011;8803;48.116;11.590;2023-05-15T01:17:27;3.53;;;3.23;;
17372;SDS011;8803;48.116;11.590;2023-05-15T01:19:30;3.63;;;3.33;;
17372;SDS011;8803;48.116;11.590;2023-05-15T01:21:50;3.80;;;3.50;;
17372;SDS011;8803;48.116;11.590;2023-05-15T01:24:19;4.00;;;3.60;;
17372;SDS011;8803;48.116;11.590;2023-05-15T01:26:33;4.47;;;4.07;;
17372;SDS011;8803;48.116;11.590;2023-05-15T01:28:45;4.50;;;4.10;;
17372;SDS011;8803;48.116;11.590;2023-05-15T01:30:59;3.93;;;3.63;;
17372;SDS011;8803;48.116;11.590;2023-05-15T01:33:07;4.43;;;4.03;;
17372;SDS011;8803;48.116;11.590;2023-05-15T01:35:20;4.83;;;4.20;;
17372;SDS011;8803;48.116;11.590;2023-05-15T01:37:26;5.30;;;4.80;;
17372;SDS011;8803;48.116;11.590;2023-05-15T01:39:42;4.83;;;4.43;;
17372;SDS011;8803;48.116;11.590;2023-05-15T01:41:50;5.17;;;4.77;;
17372;SDS011;8803;48.116;11.590;2023-05-15T01:44:05;5.40;;;4.93;;
17372;SDS011;8803;48.116;11.590;2023-05-15T01:46:12;5.40;;;4.90;;
17372;SDS011;8803;48.116;11.590;2023-05-15T01:48:18;5.30;;;4.67;;
17372;SDS011;8803;48.116;11.590;2023-05-15T01:50:23;5.13;;;4.63;;
17372;SDS011;8803;48.116;11.590;2023-05-15T01:52:40;4.90;;;4.50;;
17372;SDS011;8803;48.116;11.590;2023-05-15T01:54:46;5.90;;;5.30;;
17372;SDS011;8803;48.116;11.590;2023-05-15T01:56:59;5.97;;;5.47;;
17372;SDS011;8803;48.116;11.590;2023-05-15T01:59:03;5.70;;;5.20;;
17372;SDS011;8803;48.116;11.590;2023-05-15T02:01:08;5.80;;;5.30;;
17372;SDS011;8803;48.116;11.590;2023-05-15T02:03:23;5.27;;;4.77;;
17372;SDS011;8803;48.116;11.590;2023-05-15T02:05:27;5.77;;;5.27;;
17372;SDS011;8803;48.116;11.590;2023-05-15T02:07:42;6.30;;;5.70;;
17372;SDS011;8803;48.116;11.590;2023-05-15T02:09:46;5.97;;;5.23;;
17372;SDS011;8803;48.116;11.590;2023-05-15T02:11:59;5.37;;;4.87;;
17372;SDS011;8803;48.116;11.590;2023-05-15T02:14:04;5.83;;;5.33;;
17372;SDS011;8803;48.116;11.590;2023-05-15T02:16:08;5.57;;;5.07;;
17372;SDS011;8803;48.116;11.590;2023-05-15T02:18:22;6.00;;;5.50;;
17372;SDS011;8803;48.116;11.590;2023-05-15T02:20:26;6.87;;;6.27;;
17372;SDS011;8803;48.116;11.590;2023-05-15T02:22:39;6.23;;;5.63;;
17372;SDS011;8803;48.116;11.590;2023-05-15T02:24:43;6.00;;;5.40;;
17372;SDS011;8803;48.116;11.590;2023-05-15T02:26:48;5.90;;;5.40;;
17372;SDS011;8803;48.116;11.590;2023-05-15T02:29:05;6.30;;;5.60;;
17372;SDS011;8803;48.116;11.590;2023-05-15T02:31:12;5.60;;;5.10;;
17372;SDS011;8803;48.116;11.590;2023-05-15T02:33:27;5.93;;;5.33;;
17372;SDS011;8803;48.116;11.590;2023-05-15T02:35:34;6.10;;;5.50;;
17372;SDS011;8803;48.116;11.590;2023-05-15T02:37:39;6.60;;;6.00;;
17372;SDS011;8803;48.116;11.590;2023-05-15T02:39:54;5.97;;;5.40;;
17372;SDS011;8803;48.116;11.590;2023-05-15T02:42:00;6.50;;;5.90;;
17372;SDS011;8803;48.116;11.590;2023-05-15T02:44:15;6.80;;;6.20;;
17372;SDS011;8803;48.116;11.590;2023-05-15T02:46:20;6.83;;;6.13;;
17372;SDS011;8803;48.116;11.590;2023-05-15T02:48:25;6.73;;;6.13;;
17372;SDS011;8803;48.116;11.590;2023-05-15T02:50:30;6.93;;;6.33;;
17372;SDS011;8803;48.116;11.590;2023-05-15T02:52:42;6.37;;;5.77;;
17372;SDS011;8803;48.116;11.590;2023-05-15T02:54:46;5.93;;;5.33;;
17372;SDS011;8803;48.116;11.590;2023-05-15T02:57:00;7.33;;;6.63;;
17372;SDS011;8803;48.116;11.590;2023-05-15T02:59:04;6.30;;;5.70;;
17372;SDS011;8803;48.116;11.590;2023-05-15T03:01:18;5.77;;;5.27;;
17372;SDS011;8803;48.116;11.590;2023-05-15T03:03:22;6.90;;;6.30;;
17372;SDS011;8803;48.116;11.590;2023-05-15T03:05:36;6.50;;;5.90;;
17372;SDS011;8803;48.116;11.590;2023-05-15T03:07:40;7.07;;;6.37;;
17372;SDS011;8803;48.116;11.590;2023-05-15T03:09:55;6.33;;;5.73;;
17372;SDS011;8803;48.116;11.590;2023-05-15T03:11:58;6.30;;;5.73;;
17372;SDS011;8803;48.116;11.590;2023-05-15T03:14:14;6.23;;;5.63;;
17372;SDS011;8803;48.116;11.590;2023-05-15T03:16:17;6.37;;;5.77;;
17372;SDS011;8803;48.116;11.590;2023-05-15T03:18:21;6.63;;;6.00;;
17372;SDS011;8803;48.116;11.590;2023-05-15T03:20:25;5.87;;;5.37;;
17372;SDS011;8803;48.116;11.590;2023-05-15T03:22:38;6.07;;;5.47;;
17372;SDS011;8803;48.116;11.590;2023-05-15T03:24:42;6.43;;;5.47;;
17372;SDS011;8803;48.116;11.590;2023-05-15T03:26:56;7.30;;;5.87;;
17372;SDS011;8803;48.116;11.590;2023-05-15T03:29:00;6.47;;;5.87;;
17372;SDS011;8803;48.116;11.590;2023-05-15T03:33:15;5.77;;;5.17;;
17372;SDS011;8803;48.116;11.590;2023-05-15T03:35:19;5.33;;;4.83;;
17372;SDS011;8803;48.116;11.590;2023-05-15T03:37:23;5.70;;;5.20;;
17372;SDS011;8803;48.116;11.590;2023-05-15T03:39:36;6.47;;;5.77;;
17372;SDS011;8803;48.116;11.590;2023-05-15T03:41:39;5.47;;;4.97;;
17372;SDS011;8803;48.116;11.590;2023-05-15T03:43:54;5.60;;;5.10;;
17372;SDS011;8803;48.116;11.590;2023-05-15T03:45:58;6.10;;;5.50;;
17372;SDS011;8803;48.116;11.590;2023-05-15T03:48:10;6.20;;;5.60;;
17372;SDS011;8803;48.116;11.590;2023-05-15T03:50:14;5.93;;;5.33;;
17372;SDS011;8803;48.116;11.590;2023-05-15T03:52:27;5.43;;;4.93;;
17372;SDS011;8803;48.116;11.590;2023-05-15T03:54:31;6.20;;;5.60;;
17372;SDS011;8803;48.116;11.590;2023-05-15T03:56:35;5.37;;;4.87;;
17372;SDS011;8803;48.116;11.590;2023-05-15T03:58:39;5.73;;;5.13;;
17372;SDS011;8803;48.116;11.590;2023-05-15T04:00:42;5.00;;;4.60;;
17372;SDS011;8803;48.116;11.590;2023-05-15T04:02:58;5.23;;;4.73;;
17372;SDS011;8803;48.116;11.590;2023-05-15T04:05:02;4.90;;;4.50;;
17372;SDS011;8803;48.116;11.590;2023-05-15T04:07:06;5.43;;;4.93;;
17372;SDS011;8803;48.116;11.590;2023-05-15T04:09:10;5.67;;;4.70;;
17372;SDS011;8803;48.116;11.590;2023-05-15T04:11:23;6.87;;;4.57;;
17372;SDS011;8803;48.116;11.590;2023-05-15T04:13:28;5.40;;;4.90;;
17372;SDS011;8803;48.116;11.590;2023-05-15T04:15:41;4.93;;;4.53;;
17372;SDS011;8803;48.116;11.590;2023-05-15T04:17:45;5.83;;;5.33;;
17372;SDS011;8803;48.116;11.590;2023-05-15T04:19:50;5.77;;;5.27;;
17372;SDS011;8803;48.116;11.590;2023-05-15T04:24:07;5.53;;;5.03;;
17372;SDS011;8803;48.116;11.590;2023-05-15T04:26:11;5.90;;;5.33;;
17372;SDS011;8803;48.116;11.590;2023-05-15T04:28:14;6.00;;;5.40;;
17372;SDS011;8803;48.116;11.590;2023-05-15T04:30:19;5.80;;;5.30;;
17372;SDS011;8803;48.116;11.590;2023-05-15T04:32:23;5.83;;;5.20;;
17372;SDS011;8803;48.116;11.590;2023-05-15T04:34:37;5.50;;;5.00;;
17372;SDS011;8803;48.116;11.590;2023-05-15T04:36:42;5.83;;;5.27;;
17372;SDS011;8803;48.116;11.590;2023-05-15T04:38:46;6.13;;;5.53;;
17372;SDS011;8803;48.116;11.590;2023-05-15T04:40:50;5.90;;;5.40;;
17372;SDS011;8803;48.116;11.590;2023-05-15T04:43:03;6.67;;;6.07;;
17372;SDS011;8803;48.116;11.590;2023-05-15T04:45:07;5.97;;;5.37;;
17372;SDS011;8803;48.116;11.590;2023-05-15T04:47:11;5.90;;;5.40;;
17372;SDS011;8803;48.116;11.590;2023-05-15T04:49:15;6.27;;;5.67;;
17372;SDS011;8803;48.116;11.590;2023-05-15T04:53:30;6.57;;;5.90;;
17372;SDS011;8803;48.116;11.590;2023-05-15T04:55:34;6.87;;;6.07;;
17372;SDS011;8803;48.116;11.590;2023-05-15T04:57:38;6.87;;;6.17;;
17372;SDS011;8803;48.116;11.590;2023-05-15T04:59:52;6.60;;;5.90;;
17372;SDS011;8803;48.116;11.590;2023-05-15T05:01:56;6.37;;;5.77;;
17372;SDS011;8803;48.116;11.590;2023-05-15T05:04:09;6.67;;;5.97;;
17372;SDS011;8803;48.116;11.590;2023-05-15T05:06:12;6.83;;;6.13;;
17372;SDS011;8803;48.116;11.590;2023-05-15T05:08:26;6.73;;;6.10;;
17372;SDS011;8803;48.116;11.590;2023-05-15T05:10:30;7.37;;;6.33;;
17372;SDS011;8803;48.116;11.590;2023-05-15T05:12:44;6.53;;;5.93;;
17372;SDS011;8803;48.116;11.590;2023-05-15T05:14:47;6.83;;;6.17;;
17372;SDS011;8803;48.116;11.590;2023-05-15T05:16:51;6.53;;;5.93;;
17372;SDS011;8803;48.116;11.590;2023-05-15T05:18:55;7.13;;;5.93;;
17372;SDS011;8803;48.116;11.590;2023-05-15T05:20:59;6.80;;;6.03;;
17372;SDS011;8803;48.116;11.590;2023-05-15T05:23:03;6.40;;;5.80;;
17372;SDS011;8803;48.116;11.590;2023-05-15T05:25:17;6.77;;;6.07;;
17372;SDS011;8803;48.116;11.590;2023-05-15T05:27:21;6.10;;;5.50;;
17372;SDS011;8803;48.116;11.590;2023-05-15T05:29:24;6.33;;;5.73;;
17372;SDS011;8803;48.116;11.590;2023-05-15T05:31:28;6.37;;;5.77;;
17372;SDS011;8803;48.116;11.590;2023-05-15T05:33:32;6.97;;;6.27;;
17372;SDS011;8803;48.116;11.590;2023-05-15T05:35:36;7.80;;;6.93;;
17372;SDS011;8803;48.116;11.590;2023-05-15T05:37:40;6.87;;;6.17;;
17372;SDS011;8803;48.116;11.590;2023-05-15T05:41:55;6.97;;;6.27;;
17372;SDS011;8803;48.116;11.590;2023-05-15T05:43:59;7.40;;;6.70;;
17372;SDS011;8803;48.116;11.590;2023-05-15T05:46:13;7.17;;;6.43;;
17372;SDS011;8803;48.116;11.590;2023-05-15T05:48:17;6.73;;;6.03;;
17372;SDS011;8803;48.116;11.590;2023-05-15T05:50:21;6.83;;;6.23;;
17372;SDS011;8803;48.116;11.590;2023-05-15T05:52:25;7.07;;;6.33;;
17372;SDS011;8803;48.116;11.590;2023-05-15T05:54:29;7.63;;;6.93;;
17372;SDS011;8803;48.116;11.590;2023-05-15T05:56:45;7.07;;;6.37;;
17372;SDS011;8803;48.116;11.590;2023-05-15T05:58:48;6.63;;;5.93;;
17372;SDS011;8803;48.116;11.590;2023-05-15T06:00:53;6.90;;;6.27;;
17372;SDS011;8803;48.116;11.590;2023-05-15T06:03:05;7.00;;;6.30;;
17372;SDS011;8803;48.116;11.590;2023-05-15T06:05:09;8.27;;;7.43;;
17372;SDS011;8803;48.116;11.590;2023-05-15T06:07:23;7.53;;;6.83;;
17372;SDS011;8803;48.116;11.590;2023-05-15T06:09:28;7.07;;;6.37;;
17372;SDS011;8803;48.116;11.590;2023-05-15T06:13:45;7.53;;;6.23;;
17372;SDS011;8803;48.116;11.590;2023-05-15T06:15:49;7.80;;;7.00;;
17372;SDS011;8803;48.116;11.590;2023-05-15T06:17:53;7.40;;;6.70;;
17372;SDS011;8803;48.116;11.590;2023-05-15T06:20:08;8.37;;;6.90;;
17372;SDS011;8803;48.116;11.590;2023-05-15T06:22:13;7.30;;;6.60;;
17372;SDS011;8803;48.116;11.590;2023-05-15T06:24:25;7.87;;;7.17;;
17372;SDS011;8803;48.116;11.590;2023-05-15T06:26:29;8.10;;;7.30;;
17372;SDS011;8803;48.116;11.590;2023-05-15T06:28:33;8.20;;;7.40;;
17372;SDS011;8803;48.116;11.590;2023-05-15T06:32:51;7.03;;;6.13;;
17372;SDS011;8803;48.116;11.590;2023-05-15T06:34:55;7.27;;;6.20;;
17372;SDS011;8803;48.116;11.590;2023-05-15T06:36:59;7.13;;;6.43;;
17372;SDS011;8803;48.116;11.590;2023-05-15T06:39:03;7.13;;;6.43;;
17372;SDS011;8803;48.116;11.590;2023-05-15T06:41:09;7.40;;;5.83;;
17372;SDS011;8803;48.116;11.590;2023-05-15T06:43:13;6.27;;;5.67;;
17372;SDS011;8803;48.116;11.590;2023-05-15T06:45:19;6.40;;;5.80;;
17372;SDS011;8803;48.116;11.590;2023-05-15T06:47:32;6.57;;;5.97;;
17372;SDS011;8803;48.116;11.590;2023-05-15T06:49:36;7.47;;;6.03;;
17372;SDS011;8803;48.116;11.590;2023-05-15T06:51:40;7.17;;;6.47;;
17372;SDS011;8803;48.116;11.590;2023-05-15T06:53:54;7.30;;;6.47;;
17372;SDS011;8803;48.116;11.590;2023-05-15T06:55:58;6.60;;;6.00;;
17372;SDS011;8803;48.116;11.590;2023-05-15T06:58:02;5.93;;;5.40;;
17372;SDS011;8803;48.116;11.590;2023-05-15T07:00:07;5.93;;;5.43;;
17372;SDS011;8803;48.116;11.590;2023-05-15T07:02:12;6.60;;;6.07;;
17372;SDS011;8803;48.116;11.590;2023-05-15T07:04:16;6.30;;;5.70;;
17372;SDS011;8803;48.116;11.590;2023-05-15T07:06:19;7.20;;;6.10;;
17372;SDS011;8803;48.116;11.590;2023-05-15T07:08:32;6.10;;;5.53;;
17372;SDS011;8803;48.116;11.590;2023-05-15T07:10:36;6.37;;;5.70;;
17372;SDS011;8803;48.116;11.590;2023-05-15T07:12:49;7.23;;;6.53;;
17372;SDS011;8803;48.116;11.590;2023-05-15T07:14:53;6.47;;;5.37;;
17372;SDS011;8803;48.116;11.590;2023-05-15T07:16:57;5.80;;;5.23;;
17372;SDS011;8803;48.116;11.590;2023-05-15T07:19:00;5.93;;;5.33;;
17372;SDS011;8803;48.116;11.590;2023-05-15T07:21:05;6.23;;;5.73;;
17372;SDS011;8803;48.116;11.590;2023-05-15T07:23:17;5.87;;;5.27;;
17372;SDS011;8803;48.116;11.590;2023-05-15T07:25:21;6.40;;;5.80;;
17372;SDS011;8803;48.116;11.590;2023-05-15T07:27:25;6.13;;;5.53;;
17372;SDS011;8803;48.116;11.590;2023-05-15T07:29:29;5.20;;;4.30;;
17372;SDS011;8803;48.116;11.590;2023-05-15T07:31:32;5.43;;;4.93;;
17372;SDS011;8803;48.116;11.590;2023-05-15T07:33:45;4.90;;;4.40;;
17372;SDS011;8803;48.116;11.590;2023-05-15T07:35:49;4.83;;;4.40;;
17372;SDS011;8803;48.116;11.590;2023-05-15T07:37:53;4.23;;;3.83;;
17372;SDS011;8803;48.116;11.590;2023-05-15T07:39:57;4.23;;;3.83;;
17372;SDS011;8803;48.116;11.590;2023-05-15T07:42:00;4.67;;;4.27;;
17372;SDS011;8803;48.116;11.590;2023-05-15T07:44:15;4.50;;;4.10;;
17372;SDS011;8803;48.116;11.590;2023-05-15T07:46:18;4.70;;;4.27;;
17372;SDS011;8803;48.116;11.590;2023-05-15T07:48:22;6.17;;;4.90;;
17372;SDS011;8803;48.116;11.590;2023-05-15T07:50:26;5.13;;;4.73;;
17372;SDS011;8803;48.116;11.590;2023-05-15T07:52:41;4.50;;;4.07;;
17372;SDS011;8803;48.116;11.590;2023-05-15T07:54:45;5.40;;;4.60;;
17372;SDS011;8803;48.116;11.590;2023-05-15T07:56:49;5.60;;;5.03;;
17372;SDS011;8803;48.116;11.590;2023-05-15T07:58:54;5.43;;;4.90;;
17372;SDS011;8803;48.116;11.590;2023-05-15T08:01:18;4.80;;;4.30;;
17372;SDS011;8803;48.116;11.590;2023-05-15T08:03:22;3.90;;;3.50;;
17372;SDS011;8803;48.116;11.590;2023-05-15T08:05:36;3.40;;;3.10;;
17372;SDS011;8803;48.116;11.590;2023-05-15T08:07:40;3.33;;;3.00;;
17372;SDS011;8803;48.116;11.590;2023-05-15T08:09:45;3.77;;;3.07;;
17372;SDS011;8803;48.116;11.590;2023-05-15T08:11:49;5.90;;;4.10;;
17372;SDS011;8803;48.116;11.590;2023-05-15T08:14:11;5.30;;;3.63;;
17372;SDS011;8803;48.116;11.590;2023-05-15T08:16:15;3.90;;;3.50;;
17372;SDS011;8803;48.116;11.590;2023-05-15T08:18:19;3.83;;;3.50;;
17372;SDS011;8803;48.116;11.590;2023-05-15T08:20:32;3.70;;;3.30;;
17372;SDS011;8803;48.116;11.590;2023-05-15T08:22:36;3.60;;;3.30;;
17372;SDS011;8803;48.116;11.590;2023-05-15T08:26:52;3.57;;;3.10;;
17372;SDS011;8803;48.116;11.590;2023-05-15T08:28:56;4.07;;;3.27;;
17372;SDS011;8803;48.116;11.590;2023-05-15T08:31:00;3.70;;;3.40;;
17372;SDS011;8803;48.116;11.590;2023-05-15T08:33:03;3.50;;;3.20;;
17372;SDS011;8803;48.116;11.590;2023-05-15T08:35:18;4.23;;;3.83;;
17372;SDS011;8803;48.116;11.590;2023-05-15T08:37:22;3.67;;;3.30;;
17372;SDS011;8803;48.116;11.590;2023-05-15T08:39:36;3.70;;;3.40;;
17372;SDS011;8803;48.116;11.590;2023-05-15T08:41:41;4.83;;;3.30;;
17372;SDS011;8803;48.116;11.590;2023-05-15T08:43:55;3.67;;;3.07;;
17372;SDS011;8803;48.116;11.590;2023-05-15T08:46:01;4.40;;;4.00;;
17372;SDS011;8803;48.116;11.590;2023-05-15T08:48:05;5.90;;;3.70;;
17372;SDS011;8803;48.116;11.590;2023-05-15T08:50:20;4.00;;;3.70;;
17372;SDS011;8803;48.116;11.590;2023-05-15T08:52:25;4.93;;;4.47;;
17372;SDS011;8803;48.116;11.590;2023-05-15T08:54:39;4.40;;;4.00;;
17372;SDS011;8803;48.116;11.590;2023-05-15T08:56:43;3.90;;;3.50;;
17372;SDS011;8803;48.116;11.590;2023-05-15T08:58:47;3.33;;;3.03;;
17372;SDS011;8803;48.116;11.590;2023-05-15T09:03:12;3.37;;;3.07;;
17372;SDS011;8803;48.116;11.590;2023-05-15T09:05:16;3.37;;;3.07;;
17372;SDS011;8803;48.116;11.590;2023-05-15T09:07:29;3.10;;;2.83;;
17372;SDS011;8803;48.116;11.590;2023-05-15T09:09:33;2.70;;;2.50;;
17372;SDS011;8803;48.116;11.590;2023-05-15T09:13:50;3.73;;;3.43;;
17372;SDS011;8803;48.116;11.590;2023-05-15T09:15:54;4.43;;;2.83;;
17372;SDS011;8803;48.116;11.590;2023-05-15T09:17:58;3.10;;;2.80;;
17372;SDS011;8803;48.116;11.590;2023-05-15T09:20:04;4.00;;;3.30;;
17372;SDS011;8803;48.116;11.590;2023-05-15T09:22:17;3.17;;;2.87;;
17372;SDS011;8803;48.116;11.590;2023-05-15T09:24:23;3.33;;;3.03;;
17372;SDS011;8803;48.116;11.590;2023-05-15T09:28:41;3.50;;;3.20;;
17372;SDS011;8803;48.116;11.590;2023-05-15T09:30:46;3.30;;;2.97;;
17372;SDS011;8803;48.116;11.590;2023-05-15T09:32:59;3.83;;;3.50;;
17372;SDS011;8803;48.116;11.590;2023-05-15T09:35:05;4.10;;;3.70;;
17372;SDS011;8803;48.116;11.590;2023-05-15T09:37:29;4.47;;;3.87;;
17372;SDS011;8803;48.116;11.590;2023-05-15T09:39:42;3.87;;;3.57;;
17372;SDS011;8803;48.116;11.590;2023-05-15T09:41:46;3.80;;;3.50;;
17372;SDS011;8803;48.116;11.590;2023-05-15T09:43:50;3.60;;;3.30;;
17372;SDS011;8803;48.116;11.590;2023-05-15T09:46:04;4.43;;;3.87;;
17372;SDS011;8803;48.116;11.590;2023-05-15T09:48:09;3.83;;;3.53;;
17372;SDS011;8803;48.116;11.590;2023-05-15T09:50:17;3.50;;;3.20;;
17372;SDS011;8803;48.116;11.590;2023-05-15T09:52:32;3.70;;;3.40;;
17372;SDS011;8803;48.116;11.590;2023-05-15T09:54:37;4.83;;;4.07;;
17372;SDS011;8803;48.116;11.590;2023-05-15T09:56:42;3.70;;;3.40;;
17372;SDS011;8803;48.116;11.590;2023-05-15T09:58:52;3.60;;;3.30;;
17372;SDS011;8803;48.116;11.590;2023-05-15T10:01:07;3.60;;;3.10;;
17372;SDS011;8803;48.116;11.590;2023-05-15T10:03:13;4.03;;;3.63;;
17372;SDS011;8803;48.116;11.590;2023-05-15T10:05:20;3.90;;;3.50;;
17372;SDS011;8803;48.116;11.590;2023-05-15T10:07:37;4.10;;;3.70;;
17372;SDS011;8803;48.116;11.590;2023-05-15T10:09:41;3.30;;;3.00;;
17372;SDS011;8803;48.116;11.590;2023-05-15T10:11:46;3.57;;;3.27;;
17372;SDS011;8803;48.116;11.590;2023-05-15T10:14:03;3.77;;;3.07;;
17372;SDS011;8803;48.116;11.590;2023-05-15T10:16:08;4.10;;;3.70;;
17372;SDS011;8803;48.116;11.590;2023-05-15T10:18:14;3.77;;;3.47;;
17372;SDS011;8803;48.116;11.590;2023-05-15T10:20:20;3.77;;;3.40;;
17372;SDS011;8803;48.116;11.590;2023-05-15T10:22:25;3.47;;;3.17;;
17372;SDS011;8803;48.116;11.590;2023-05-15T10:24:39;4.20;;;3.80;;
17372;SDS011;8803;48.116;11.590;2023-05-15T10:26:45;3.87;;;3.47;;
17372;SDS011;8803;48.116;11.590;2023-05-15T10:28:50;4.33;;;3.87;;
17372;SDS011;8803;48.116;11.590;2023-05-15T10:30:54;4.30;;;3.80;;
17372;SDS011;8803;48.116;11.590;2023-05-15T10:33:07;4.37;;;3.50;;
17372;SDS011;8803;48.116;11.590;2023-05-15T10:35:12;4.53;;;4.13;;
17372;SDS011;8803;48.116;11.590;2023-05-15T10:37:17;3.67;;;3.37;;
17372;SDS011;8803;48.116;11.590;2023-05-15T10:39:31;3.60;;;3.30;;
17372;SDS011;8803;48.116;11.590;2023-05-15T10:41:37;3.70;;;3.40;;
17372;SDS011;8803;48.116;11.590;2023-05-15T10:43:50;3.43;;;3.13;;
17372;SDS011;8803;48.116;11.590;2023-05-15T10:45:56;3.43;;;3.13;;
17372;SDS011;8803;48.116;11.590;2023-05-15T10:48:00;2.70;;;2.50;;
17372;SDS011;8803;48.116;11.590;2023-05-15T10:50:13;2.70;;;2.50;;
17372;SDS011;8803;48.116;11.590;2023-05-15T10:52:17;2.90;;;2.60;;
17372;SDS011;8803;48.116;11.590;2023-05-15T10:54:30;2.70;;;2.50;;
17372;SDS011;8803;48.116;11.590;2023-05-15T10:56:36;3.57;;;3.10;;
17372;SDS011;8803;48.116;11.590;2023-05-15T10:58:43;3.43;;;3.13;;
17372;SDS011;8803;48.116;11.590;2023-05-15T11:03:00;2.90;;;2.70;;
17372;SDS011;8803;48.116;11.590;2023-05-15T11:05:06;3.37;;;3.07;;
17372;SDS011;8803;48.116;11.590;2023-05-15T11:07:20;4.00;;;3.70;;
17372;SDS011;8803;48.116;11.590;2023-05-15T11:11:54;4.23;;;3.87;;
17372;SDS011;8803;48.116;11.590;2023-05-15T11:14:11;5.30;;;4.80;;
17372;SDS011;8803;48.116;11.590;2023-05-15T11:19:09;9.73;;;5.97;;
17372;SDS011;8803;48.116;11.590;2023-05-15T11:21:39;5.17;;;4.03;;
17372;SDS011;8803;48.116;11.590;2023-05-15T11:23:47;7.67;;;4.90;;
17372;SDS011;8803;48.116;11.590;2023-05-15T11:25:59;5.93;;;5.37;;
17372;SDS011;8803;48.116;11.590;2023-05-15T11:28:03;4.20;;;3.90;;
17372;SDS011;8803;48.116;11.590;2023-05-15T11:30:11;5.23;;;4.40;;
17372;SDS011;8803;48.116;11.590;2023-05-15T11:32:30;4.20;;;3.80;;
17372;SDS011;8803;48.116;11.590;2023-05-15T11:34:41;5.33;;;4.00;;
17372;SDS011;8803;48.116;11.590;2023-05-15T11:36:46;5.43;;;4.40;;
17372;SDS011;8803;48.116;11.590;2023-05-15T11:38:50;4.70;;;4.10;;
17372;SDS011;8803;48.116;11.590;2023-05-15T11:43:06;5.23;;;4.60;;
17372;SDS011;8803;48.116;11.590;2023-05-15T11:45:12;9.03;;;6.10;;
17372;SDS011;8803;48.116;11.590;2023-05-15T11:47:17;6.50;;;5.80;;
17372;SDS011;8803;48.116;11.590;2023-05-15T11:49:21;5.47;;;5.03;;
17372;SDS011;8803;48.116;11.590;2023-05-15T11:51:27;5.20;;;4.70;;
17372;SDS011;8803;48.116;11.590;2023-05-15T11:53:41;5.50;;;4.90;;
17372;SDS011;8803;48.116;11.590;2023-05-15T11:55:46;4.80;;;4.23;;
17372;SDS011;8803;48.116;11.590;2023-05-15T11:57:49;5.00;;;4.50;;
17372;SDS011;8803;48.116;11.590;2023-05-15T11:59:53;8.77;;;6.20;;
17372;SDS011;8803;48.116;11.590;2023-05-15T12:04:13;4.80;;;4.40;;
17372;SDS011;8803;48.116;11.590;2023-05-15T12:06:17;6.03;;;5.30;;
17372;SDS011;8803;48.116;11.590;2023-05-15T12:08:21;6.60;;;6.00;;
17372;SDS011;8803;48.116;11.590;2023-05-15T12:10:25;5.00;;;4.50;;
17372;SDS011;8803;48.116;11.590;2023-05-15T12:12:40;5.03;;;4.53;;
17372;SDS011;8803;48.116;11.590;2023-05-15T12:14:44;5.07;;;4.60;;
17372;SDS011;8803;48.116;11.590;2023-05-15T12:16:50;5.13;;;4.63;;
17372;SDS011;8803;48.116;11.590;2023-05-15T12:18:55;5.33;;;4.70;;
17372;SDS011;8803;48.116;11.590;2023-05-15T12:20:59;5.07;;;4.50;;
17372;SDS011;8803;48.116;11.590;2023-05-15T12:23:14;5.60;;;5.03;;
17372;SDS011;8803;48.116;11.590;2023-05-15T12:25:18;4.70;;;4.17;;
17372;SDS011;8803;48.116;11.590;2023-05-15T12:27:22;5.30;;;4.43;;
17372;SDS011;8803;48.116;11.590;2023-05-15T12:29:35;5.30;;;4.20;;
17372;SDS011;8803;48.116;11.590;2023-05-15T12:31:39;3.73;;;3.40;;
17372;SDS011;8803;48.116;11.590;2023-05-15T12:33:51;7.27;;;5.30;;
17372;SDS011;8803;48.116;11.590;2023-05-15T12:35:56;4.80;;;4.30;;
17372;SDS011;8803;48.116;11.590;2023-05-15T12:38:00;4.47;;;4.07;;
17372;SDS011;8803;48.116;11.590;2023-05-15T12:40:06;6.27;;;4.23;;
17372;SDS011;8803;48.116;11.590;2023-05-15T12:42:20;4.10;;;3.80;;
17372;SDS011;8803;48.116;11.590;2023-05-15T12:44:24;4.77;;;4.30;;
17372;SDS011;8803;48.116;11.590;2023-05-15T12:46:29;4.43;;;3.97;;
17372;SDS011;8803;48.116;11.590;2023-05-15T12:48:49;4.40;;;3.60;;
17372;SDS011;8803;48.116;11.590;2023-05-15T12:50:54;4.03;;;3.40;;
17372;SDS011;8803;48.116;11.590;2023-05-15T12:53:08;4.07;;;3.77;;
17372;SDS011;8803;48.116;11.590;2023-05-15T12:55:15;4.90;;;3.87;;
17372;SDS011;8803;48.116;11.590;2023-05-15T12:57:28;4.80;;;4.30;;
17372;SDS011;8803;48.116;11.590;2023-05-15T12:59:32;4.83;;;4.13;;
17372;SDS011;8803;48.116;11.590;2023-05-15T13:01:36;5.27;;;4.57;;
17372;SDS011;8803;48.116;11.590;2023-05-15T13:03:53;5.00;;;4.17;;
17372;SDS011;8803;48.116;11.590;2023-05-15T13:05:57;3.97;;;3.60;;
17372;SDS011;8803;48.116;11.590;2023-05-15T13:08:03;4.50;;;4.10;;
17372;SDS011;8803;48.116;11.590;2023-05-15T13:10:08;6.70;;;4.20;;
17372;SDS011;8803;48.116;11.590;2023-05-15T13:12:16;4.30;;;3.60;;
17372;SDS011;8803;48.116;11.590;2023-05-15T13:14:32;3.57;;;2.97;;
17372;SDS011;8803;48.116;11.590;2023-05-15T13:16:36;3.50;;;3.20;;
17372;SDS011;8803;48.116;11.590;2023-05-15T13:18:42;3.70;;;3.00;;
17372;SDS011;8803;48.116;11.590;2023-05-15T13:20:46;3.10;;;2.90;;
17372;SDS011;8803;48.116;11.590;2023-05-15T13:22:59;4.23;;;3.10;;
17372;SDS011;8803;48.116;11.590;2023-05-15T13:25:04;3.77;;;3.47;;
17372;SDS011;8803;48.116;11.590;2023-05-15T13:27:09;3.90;;;3.60;;